sensor_id;sensor_type;location;lat;lon;timestamp;pressure;altitude;pressure_sealevel;temperature
31921;BMP280;66485;52.128;4.436;2023-02-11T00:01:35;103508.47;;;16.86
31921;BMP280;66485;52.128;4.436;2023-02-11T00:04:01;103493.00;;;16.86
31921;BMP280;66485;52.128;4.436;2023-02-11T00:06:28;103493.47;;;16.88
31921;BMP280;66485;52.128;4.436;2023-02-11T00:08:54;103486.47;;;16.87
31921;BMP280;66485;52.128;4.436;2023-02-11T00:11:21;103485.34;;;16.88
31921;BMP280;66485;52.128;4.436;2023-02-11T00:13:47;103488.50;;;16.90
31921;BMP280;66485;52.128;4.436;2023-02-11T00:16:15;103488.50;;;16.90
31921;BMP280;66485;52.128;4.436;2023-02-11T00:18:41;103486.00;;;16.85
31921;BMP280;66485;52.128;4.436;2023-02-11T00:21:13;103486.00;;;16.85
31921;BMP280;66485;52.128;4.436;2023-02-11T00:23:39;103477.78;;;16.94
31921;BMP280;66485;52.128;4.436;2023-02-11T00:26:14;103475.63;;;16.99
31921;BMP280;66485;52.128;4.436;2023-02-11T00:28:40;103471.94;;;17.04
31921;BMP280;66485;52.128;4.436;2023-02-11T00:31:05;103471.22;;;17.07
31921;BMP280;66485;52.128;4.436;2023-02-11T00:33:30;103475.50;;;17.08
31921;BMP280;66485;52.128;4.436;2023-02-11T00:35:56;103455.75;;;17.08
31921;BMP280;66485;52.128;4.436;2023-02-11T00:38:21;103459.97;;;17.05
31921;BMP280;66485;52.128;4.436;2023-02-11T00:40:46;103466.94;;;17.06
31921;BMP280;66485;52.128;4.436;2023-02-11T00:43:12;103461.19;;;17.08
31921;BMP280;66485;52.128;4.436;2023-02-11T00:45:37;103474.25;;;17.06
31921;BMP280;66485;52.128;4.436;2023-02-11T00:48:02;103467.28;;;17.05
31921;BMP280;66485;52.128;4.436;2023-02-11T00:50:27;103478.81;;;17.01
31921;BMP280;66485;52.128;4.436;2023-02-11T00:52:53;103479.59;;;17.02
31921;BMP280;66485;52.128;4.436;2023-02-11T00:55:18;103477.19;;;17.00
31921;BMP280;66485;52.128;4.436;2023-02-11T00:57:43;103484.56;;;17.00
31921;BMP280;66485;52.128;4.436;2023-02-11T01:00:10;103476.75;;;16.98
31921;BMP280;66485;52.128;4.436;2023-02-11T01:02:37;103472.38;;;16.94
31921;BMP280;66485;52.128;4.436;2023-02-11T01:05:03;103469.66;;;16.94
31921;BMP280;66485;52.128;4.436;2023-02-11T01:07:28;103471.00;;;16.88
31921;BMP280;66485;52.128;4.436;2023-02-11T01:09:54;103471.00;;;16.88
31921;BMP280;66485;52.128;4.436;2023-02-11T01:12:19;103469.31;;;16.83
31921;BMP280;66485;52.128;4.436;2023-02-11T01:14:44;103462.22;;;16.79
31921;BMP280;66485;52.128;4.436;2023-02-11T01:17:10;103462.22;;;16.79
31921;BMP280;66485;52.128;4.436;2023-02-11T01:19:36;103463.34;;;16.78
31921;BMP280;66485;52.128;4.436;2023-02-11T01:22:02;103463.34;;;16.78
31921;BMP280;66485;52.128;4.436;2023-02-11T01:24:27;103467.88;;;16.74
31921;BMP280;66485;52.128;4.436;2023-02-11T01:26:53;103467.88;;;16.74
31921;BMP280;66485;52.128;4.436;2023-02-11T01:29:19;103458.16;;;16.73
31921;BMP280;66485;52.128;4.436;2023-02-11T01:31:44;103461.88;;;16.68
31921;BMP280;66485;52.128;4.436;2023-02-11T01:34:09;103451.38;;;16.66
31921;BMP280;66485;52.128;4.436;2023-02-11T01:36:35;103446.66;;;16.63
31921;BMP280;66485;52.128;4.436;2023-02-11T01:39:00;103450.81;;;16.61
31921;BMP280;66485;52.128;4.436;2023-02-11T01:41:26;103451.28;;;16.63
31921;BMP280;66485;52.128;4.436;2023-02-11T01:43:52;103451.28;;;16.63
31921;BMP280;66485;52.128;4.436;2023-02-11T01:46:32;103439.06;;;16.57
31921;BMP280;66485;52.128;4.436;2023-02-11T01:49:11;103445.41;;;16.61
31921;BMP280;66485;52.128;4.436;2023-02-11T01:51:42;103437.38;;;16.64
31921;BMP280;66485;52.128;4.436;2023-02-11T01:54:11;103437.38;;;16.64
31921;BMP280;66485;52.128;4.436;2023-02-11T01:57:11;103438.97;;;16.78
31921;BMP280;66485;52.128;4.436;2023-02-11T02:05:08;103439.97;;;16.97
31921;BMP280;66485;52.128;4.436;2023-02-11T02:07:48;103439.75;;;17.02
31921;BMP280;66485;52.128;4.436;2023-02-11T02:10:18;103439.75;;;17.02
31921;BMP280;66485;52.128;4.436;2023-02-11T02:12:44;103445.25;;;17.06
31921;BMP280;66485;52.128;4.436;2023-02-11T02:15:29;103437.94;;;17.07
31921;BMP280;66485;52.128;4.436;2023-02-11T02:28:49;103432.75;;;17.01
31921;BMP280;66485;52.128;4.436;2023-02-11T02:31:35;103453.19;;;16.99
31921;BMP280;66485;52.128;4.436;2023-02-11T02:34:08;103453.19;;;16.99
31921;BMP280;66485;52.128;4.436;2023-02-11T02:39:24;103450.00;;;16.97
31921;BMP280;66485;52.128;4.436;2023-02-11T02:41:50;103450.34;;;16.95
31921;BMP280;66485;52.128;4.436;2023-02-11T02:44:17;103441.34;;;16.91
31921;BMP280;66485;52.128;4.436;2023-02-11T02:46:43;103447.44;;;16.88
31921;BMP280;66485;52.128;4.436;2023-02-11T02:49:13;103447.44;;;16.88
31921;BMP280;66485;52.128;4.436;2023-02-11T02:52:06;103429.94;;;16.86
31921;BMP280;66485;52.128;4.436;2023-02-11T02:54:39;103437.63;;;16.84
31921;BMP280;66485;52.128;4.436;2023-02-11T03:00:29;103441.81;;;16.81
31921;BMP280;66485;52.128;4.436;2023-02-11T03:03:28;103453.16;;;16.75
31921;BMP280;66485;52.128;4.436;2023-02-11T03:08:48;103439.41;;;16.67
31921;BMP280;66485;52.128;4.436;2023-02-11T03:11:17;103439.88;;;16.70
31921;BMP280;66485;52.128;4.436;2023-02-11T03:13:45;103439.88;;;16.70
31921;BMP280;66485;52.128;4.436;2023-02-11T03:16:31;103433.00;;;16.72
31921;BMP280;66485;52.128;4.436;2023-02-11T03:19:05;103430.97;;;16.81
31921;BMP280;66485;52.128;4.436;2023-02-11T03:21:35;103433.69;;;16.81
31921;BMP280;66485;52.128;4.436;2023-02-11T03:24:06;103442.69;;;16.85
31921;BMP280;66485;52.128;4.436;2023-02-11T03:26:54;103435.81;;;16.88
31921;BMP280;66485;52.128;4.436;2023-02-11T03:31:55;103447.44;;;16.88
31921;BMP280;66485;52.128;4.436;2023-02-11T03:34:41;103437.28;;;16.85
31921;BMP280;66485;52.128;4.436;2023-02-11T03:37:12;103426.44;;;16.85
31921;BMP280;66485;52.128;4.436;2023-02-11T03:39:43;103425.66;;;16.85
31921;BMP280;66485;52.128;4.436;2023-02-11T03:42:11;103427.13;;;16.82
31921;BMP280;66485;52.128;4.436;2023-02-11T03:44:46;103427.13;;;16.82
31921;BMP280;66485;52.128;4.436;2023-02-11T03:47:14;103414.31;;;16.79
31921;BMP280;66485;52.128;4.436;2023-02-11T03:49:42;103414.31;;;16.79
31921;BMP280;66485;52.128;4.436;2023-02-11T03:52:10;103413.03;;;16.77
31921;BMP280;66485;52.128;4.436;2023-02-11T03:54:37;103419.94;;;16.74
31921;BMP280;66485;52.128;4.436;2023-02-11T03:57:04;103419.94;;;16.74
31921;BMP280;66485;52.128;4.436;2023-02-11T03:59:29;103413.81;;;16.65
31921;BMP280;66485;52.128;4.436;2023-02-11T04:01:55;103409.66;;;16.67
31921;BMP280;66485;52.128;4.436;2023-02-11T04:04:23;103423.84;;;16.64
31921;BMP280;66485;52.128;4.436;2023-02-11T04:06:48;103413.38;;;16.63
31921;BMP280;66485;52.128;4.436;2023-02-11T04:09:14;103415.38;;;16.66
31921;BMP280;66485;52.128;4.436;2023-02-11T04:11:40;103403.22;;;16.60
31921;BMP280;66485;52.128;4.436;2023-02-11T04:14:05;103411.69;;;16.58
31921;BMP280;66485;52.128;4.436;2023-02-11T04:16:30;103412.03;;;16.69
31921;BMP280;66485;52.128;4.436;2023-02-11T04:18:56;103413.34;;;16.75
31921;BMP280;66485;52.128;4.436;2023-02-11T04:21:21;103417.66;;;16.76
31921;BMP280;66485;52.128;4.436;2023-02-11T04:23:47;103417.66;;;16.76
31921;BMP280;66485;52.128;4.436;2023-02-11T04:26:13;103424.75;;;16.81
31921;BMP280;66485;52.128;4.436;2023-02-11T04:28:38;103426.34;;;16.82
31921;BMP280;66485;52.128;4.436;2023-02-11T04:31:03;103426.34;;;16.82
31921;BMP280;66485;52.128;4.436;2023-02-11T04:33:29;103406.94;;;16.80
31921;BMP280;66485;52.128;4.436;2023-02-11T04:35:54;103405.81;;;16.81
31921;BMP280;66485;52.128;4.436;2023-02-11T04:38:20;103411.91;;;16.78
31921;BMP280;66485;52.128;4.436;2023-02-11T04:40:48;103413.94;;;16.81
31921;BMP280;66485;52.128;4.436;2023-02-11T04:43:13;103417.66;;;16.76
31921;BMP280;66485;52.128;4.436;2023-02-11T04:45:38;103422.63;;;16.74
31921;BMP280;66485;52.128;4.436;2023-02-11T04:48:04;103422.63;;;16.74
31921;BMP280;66485;52.128;4.436;2023-02-11T04:50:29;103419.81;;;16.71
31921;BMP280;66485;52.128;4.436;2023-02-11T04:52:55;103410.44;;;16.68
31921;BMP280;66485;52.128;4.436;2023-02-11T04:55:20;103410.44;;;16.68
31921;BMP280;66485;52.128;4.436;2023-02-11T04:57:45;103405.25;;;16.63
31921;BMP280;66485;52.128;4.436;2023-02-11T05:00:11;103404.81;;;16.61
31921;BMP280;66485;52.128;4.436;2023-02-11T05:02:37;103404.81;;;16.61
31921;BMP280;66485;52.128;4.436;2023-02-11T05:05:03;103401.66;;;16.59
31921;BMP280;66485;52.128;4.436;2023-02-11T05:07:28;103404.81;;;16.61
31921;BMP280;66485;52.128;4.436;2023-02-11T05:09:53;103404.22;;;16.67
31921;BMP280;66485;52.128;4.436;2023-02-11T05:12:19;103407.84;;;16.72
31921;BMP280;66485;52.128;4.436;2023-02-11T05:14:44;103407.84;;;16.72
31921;BMP280;66485;52.128;4.436;2023-02-11T05:17:09;103412.22;;;16.76
31921;BMP280;66485;52.128;4.436;2023-02-11T05:19:35;103412.22;;;16.76
31921;BMP280;66485;52.128;4.436;2023-02-11T05:22:00;103413.81;;;16.77
31921;BMP280;66485;52.128;4.436;2023-02-11T05:24:25;103426.69;;;16.80
31921;BMP280;66485;52.128;4.436;2023-02-11T05:26:51;103426.69;;;16.80
31921;BMP280;66485;52.128;4.436;2023-02-11T05:29:16;103429.59;;;16.75
31921;BMP280;66485;52.128;4.436;2023-02-11T05:31:41;103438.88;;;16.74
31921;BMP280;66485;52.128;4.436;2023-02-11T05:34:06;103444.84;;;16.80
31921;BMP280;66485;52.128;4.436;2023-02-11T05:36:32;103444.84;;;16.80
31921;BMP280;66485;52.128;4.436;2023-02-11T05:38:57;103446.53;;;16.84
31921;BMP280;66485;52.128;4.436;2023-02-11T05:41:22;103452.84;;;16.88
31921;BMP280;66485;52.128;4.436;2023-02-11T05:43:48;103455.56;;;16.88
31921;BMP280;66485;52.128;4.436;2023-02-11T05:46:17;103455.56;;;16.88
31921;BMP280;66485;52.128;4.436;2023-02-11T05:48:42;103452.38;;;16.86
31921;BMP280;66485;52.128;4.436;2023-02-11T05:51:08;103452.38;;;16.86
31921;BMP280;66485;52.128;4.436;2023-02-11T05:53:33;103444.38;;;16.90
31921;BMP280;66485;52.128;4.436;2023-02-11T05:55:58;103444.38;;;16.90
31921;BMP280;66485;52.128;4.436;2023-02-11T05:58:24;103441.69;;;16.90
31921;BMP280;66485;52.128;4.436;2023-02-11T06:00:49;103446.97;;;16.86
31921;BMP280;66485;52.128;4.436;2023-02-11T06:03:14;103446.97;;;16.86
31921;BMP280;66485;52.128;4.436;2023-02-11T06:05:41;103438.75;;;16.83
31921;BMP280;66485;52.128;4.436;2023-02-11T06:08:07;103441.13;;;16.84
31921;BMP280;66485;52.128;4.436;2023-02-11T06:10:32;103443.47;;;16.86
31921;BMP280;66485;52.128;4.436;2023-02-11T06:12:57;103443.47;;;16.86
31921;BMP280;66485;52.128;4.436;2023-02-11T06:15:23;103443.25;;;16.79
31921;BMP280;66485;52.128;4.436;2023-02-11T06:17:48;103436.59;;;16.76
31921;BMP280;66485;52.128;4.436;2023-02-11T06:20:13;103439.22;;;16.73
31921;BMP280;66485;52.128;4.436;2023-02-11T06:22:39;103428.38;;;16.73
31921;BMP280;66485;52.128;4.436;2023-02-11T06:25:05;103428.38;;;16.73
31921;BMP280;66485;52.128;4.436;2023-02-11T06:27:30;103441.47;;;16.71
31921;BMP280;66485;52.128;4.436;2023-02-11T06:29:55;103441.47;;;16.71
31921;BMP280;66485;52.128;4.436;2023-02-11T06:32:21;103443.94;;;16.63
31921;BMP280;66485;52.128;4.436;2023-02-11T06:34:46;103443.94;;;16.63
31921;BMP280;66485;52.128;4.436;2023-02-11T06:37:11;103437.28;;;16.73
31921;BMP280;66485;52.128;4.436;2023-02-11T06:39:37;103437.28;;;16.73
31921;BMP280;66485;52.128;4.436;2023-02-11T06:42:02;103439.31;;;16.76
31921;BMP280;66485;52.128;4.436;2023-02-11T06:44:28;103441.69;;;16.78
31921;BMP280;66485;52.128;4.436;2023-02-11T06:46:53;103441.69;;;16.78
31921;BMP280;66485;52.128;4.436;2023-02-11T06:49:18;103443.25;;;16.79
31921;BMP280;66485;52.128;4.436;2023-02-11T06:51:43;103442.25;;;16.83
31921;BMP280;66485;52.128;4.436;2023-02-11T06:54:10;103442.25;;;16.83
31921;BMP280;66485;52.128;4.436;2023-02-11T06:56:38;103453.28;;;16.78
31921;BMP280;66485;52.128;4.436;2023-02-11T06:59:04;103447.09;;;16.78
31921;BMP280;66485;52.128;4.436;2023-02-11T07:01:29;103443.13;;;16.75
31921;BMP280;66485;52.128;4.436;2023-02-11T07:03:55;103443.13;;;16.75
31921;BMP280;66485;52.128;4.436;2023-02-11T07:06:22;103445.06;;;16.75
31921;BMP280;66485;52.128;4.436;2023-02-11T07:08:49;103449.25;;;16.72
31921;BMP280;66485;52.128;4.436;2023-02-11T07:11:25;103456.56;;;16.72
31921;BMP280;66485;52.128;4.436;2023-02-11T07:13:52;103456.56;;;16.72
31921;BMP280;66485;52.128;4.436;2023-02-11T07:16:18;103471.22;;;16.71
31921;BMP280;66485;52.128;4.436;2023-02-11T07:18:44;103471.09;;;16.67
31921;BMP280;66485;52.128;4.436;2023-02-11T07:21:11;103480.69;;;16.64
31921;BMP280;66485;52.128;4.436;2023-02-11T07:23:38;103480.25;;;16.62
31921;BMP280;66485;52.128;4.436;2023-02-11T07:26:06;103474.75;;;16.59
31921;BMP280;66485;52.128;4.436;2023-02-11T07:28:33;103479.38;;;16.58
31921;BMP280;66485;52.128;4.436;2023-02-11T07:31:05;103479.38;;;16.58
31921;BMP280;66485;52.128;4.436;2023-02-11T07:33:30;103482.16;;;16.62
31921;BMP280;66485;52.128;4.436;2023-02-11T07:35:59;103482.16;;;16.62
31921;BMP280;66485;52.128;4.436;2023-02-11T07:38:24;103479.72;;;16.69
31921;BMP280;66485;52.128;4.436;2023-02-11T07:40:49;103485.66;;;16.75
31921;BMP280;66485;52.128;4.436;2023-02-11T07:43:15;103486.91;;;16.77
31921;BMP280;66485;52.128;4.436;2023-02-11T07:45:40;103491.19;;;16.78
31921;BMP280;66485;52.128;4.436;2023-02-11T07:48:05;103502.03;;;16.78
31921;BMP280;66485;52.128;4.436;2023-02-11T07:50:31;103502.03;;;16.78
31921;BMP280;66485;52.128;4.436;2023-02-11T07:52:56;103482.28;;;16.78
31921;BMP280;66485;52.128;4.436;2023-02-11T07:55:21;103482.28;;;16.78
31921;BMP280;66485;52.128;4.436;2023-02-11T07:57:47;103491.88;;;16.75
31921;BMP280;66485;52.128;4.436;2023-02-11T08:00:13;103497.75;;;16.77
31921;BMP280;66485;52.128;4.436;2023-02-11T08:02:38;103497.75;;;16.77
31921;BMP280;66485;52.128;4.436;2023-02-11T08:05:04;103493.00;;;16.74
31921;BMP280;66485;52.128;4.436;2023-02-11T08:07:29;103493.00;;;16.74
31921;BMP280;66485;52.128;4.436;2023-02-11T08:09:54;103488.94;;;16.68
31921;BMP280;66485;52.128;4.436;2023-02-11T08:12:20;103495.00;;;16.65
31921;BMP280;66485;52.128;4.436;2023-02-11T08:14:45;103503.91;;;16.65
31921;BMP280;66485;52.128;4.436;2023-02-11T08:17:10;103493.88;;;16.66
31921;BMP280;66485;52.128;4.436;2023-02-11T08:19:35;103492.75;;;16.67
31921;BMP280;66485;52.128;4.436;2023-02-11T08:22:01;103492.75;;;16.67
31921;BMP280;66485;52.128;4.436;2023-02-11T08:24:26;103496.16;;;16.64
31921;BMP280;66485;52.128;4.436;2023-02-11T08:26:52;103492.56;;;16.72
31921;BMP280;66485;52.128;4.436;2023-02-11T08:29:17;103496.63;;;16.78
31921;BMP280;66485;52.128;4.436;2023-02-11T08:31:45;103496.63;;;16.78
31921;BMP280;66485;52.128;4.436;2023-02-11T08:34:12;103521.09;;;16.82
31921;BMP280;66485;52.128;4.436;2023-02-11T08:36:39;103517.69;;;16.85
31921;BMP280;66485;52.128;4.436;2023-02-11T08:39:12;103517.69;;;16.85
31921;BMP280;66485;52.128;4.436;2023-02-11T08:41:38;103525.50;;;16.86
31921;BMP280;66485;52.128;4.436;2023-02-11T08:44:03;103525.50;;;16.86
31921;BMP280;66485;52.128;4.436;2023-02-11T08:46:29;103528.44;;;16.81
31921;BMP280;66485;52.128;4.436;2023-02-11T08:48:54;103534.63;;;16.82
31921;BMP280;66485;52.128;4.436;2023-02-11T08:51:23;103534.63;;;16.82
31921;BMP280;66485;52.128;4.436;2023-02-11T08:53:49;103545.13;;;16.95
31921;BMP280;66485;52.128;4.436;2023-02-11T08:56:15;103545.13;;;16.95
31921;BMP280;66485;52.128;4.436;2023-02-11T08:58:41;103551.78;;;16.98
31921;BMP280;66485;52.128;4.436;2023-02-11T09:01:12;103551.78;;;16.98
31921;BMP280;66485;52.128;4.436;2023-02-11T09:03:37;103548.75;;;16.99
31921;BMP280;66485;52.128;4.436;2023-02-11T09:06:04;103550.31;;;17.00
31921;BMP280;66485;52.128;4.436;2023-02-11T09:08:30;103550.31;;;17.00
31921;BMP280;66485;52.128;4.436;2023-02-11T09:10:56;103543.69;;;16.98
31921;BMP280;66485;52.128;4.436;2023-02-11T09:13:21;103545.38;;;17.02
31921;BMP280;66485;52.128;4.436;2023-02-11T09:15:46;103545.38;;;17.02
31921;BMP280;66485;52.128;4.436;2023-02-11T09:18:12;103552.25;;;17.00
31921;BMP280;66485;52.128;4.436;2023-02-11T09:20:38;103545.72;;;17.01
31921;BMP280;66485;52.128;4.436;2023-02-11T09:23:03;103550.69;;;16.99
31921;BMP280;66485;52.128;4.436;2023-02-11T09:25:28;103555.63;;;16.97
31921;BMP280;66485;52.128;4.436;2023-02-11T09:27:53;103552.13;;;16.96
31921;BMP280;66485;52.128;4.436;2023-02-11T09:30:19;103552.13;;;16.96
31921;BMP280;66485;52.128;4.436;2023-02-11T09:32:45;103550.44;;;16.92
31921;BMP280;66485;52.128;4.436;2023-02-11T09:35:10;103568.28;;;16.93
31921;BMP280;66485;52.128;4.436;2023-02-11T09:37:35;103558.91;;;16.90
31921;BMP280;66485;52.128;4.436;2023-02-11T09:40:02;103558.91;;;16.90
31921;BMP280;66485;52.128;4.436;2023-02-11T09:43:00;103562.41;;;16.91
31921;BMP280;66485;52.128;4.436;2023-02-11T09:45:29;103570.88;;;16.89
31921;BMP280;66485;52.128;4.436;2023-02-11T09:48:00;103570.88;;;16.89
31921;BMP280;66485;52.128;4.436;2023-02-11T09:50:31;103573.81;;;16.84
31921;BMP280;66485;52.128;4.436;2023-02-11T09:55:33;103574.94;;;16.83
31921;BMP280;66485;52.128;4.436;2023-02-11T09:58:04;103579.09;;;16.81
31921;BMP280;66485;52.128;4.436;2023-02-11T10:00:47;103573.22;;;16.79
31921;BMP280;66485;52.128;4.436;2023-02-11T10:06:08;103583.25;;;16.78
31921;BMP280;66485;52.128;4.436;2023-02-11T10:11:31;103596.31;;;16.76
31921;BMP280;66485;52.128;4.436;2023-02-11T10:14:20;103598.13;;;16.72
31921;BMP280;66485;52.128;4.436;2023-02-11T10:22:28;103611.66;;;16.72
31921;BMP280;66485;52.128;4.436;2023-02-11T10:24:56;103613.03;;;16.78
31921;BMP280;66485;52.128;4.436;2023-02-11T10:27:33;103613.03;;;16.78
31921;BMP280;66485;52.128;4.436;2023-02-11T10:30:05;103620.41;;;16.90
31921;BMP280;66485;52.128;4.436;2023-02-11T10:32:43;103625.16;;;16.93
31921;BMP280;66485;52.128;4.436;2023-02-11T10:35:17;103625.25;;;16.96
31921;BMP280;66485;52.128;4.436;2023-02-11T10:37:43;103635.28;;;16.96
31921;BMP280;66485;52.128;4.436;2023-02-11T10:40:17;103635.28;;;16.96
31921;BMP280;66485;52.128;4.436;2023-02-11T10:42:47;103630.66;;;16.96
31921;BMP280;66485;52.128;4.436;2023-02-11T10:45:27;103630.66;;;16.96
31921;BMP280;66485;52.128;4.436;2023-02-11T10:47:54;103627.06;;;16.92
31921;BMP280;66485;52.128;4.436;2023-02-11T10:50:25;103631.00;;;16.95
31921;BMP280;66485;52.128;4.436;2023-02-11T10:52:51;103642.53;;;16.92
31921;BMP280;66485;52.128;4.436;2023-02-11T10:55:23;103643.31;;;16.92
31921;BMP280;66485;52.128;4.436;2023-02-11T10:57:57;103643.31;;;16.92
31921;BMP280;66485;52.128;4.436;2023-02-11T11:00:32;103646.69;;;16.89
31921;BMP280;66485;52.128;4.436;2023-02-11T11:03:00;103649.72;;;16.88
31921;BMP280;66485;52.128;4.436;2023-02-11T11:05:44;103657.38;;;16.86
31921;BMP280;66485;52.128;4.436;2023-02-11T11:08:11;103663.59;;;16.86
31921;BMP280;66485;52.128;4.436;2023-02-11T11:10:46;103653.22;;;16.88
31921;BMP280;66485;52.128;4.436;2023-02-11T11:13:25;103666.19;;;16.83
31921;BMP280;66485;52.128;4.436;2023-02-11T11:18:42;103655.94;;;16.88
31921;BMP280;66485;52.128;4.436;2023-02-11T11:23:38;103663.50;;;16.95
31921;BMP280;66485;52.128;4.436;2023-02-11T11:26:05;103663.50;;;16.95
31921;BMP280;66485;52.128;4.436;2023-02-11T11:28:41;103664.06;;;17.00
31921;BMP280;66485;52.128;4.436;2023-02-11T11:31:13;103671.56;;;17.03
31921;BMP280;66485;52.128;4.436;2023-02-11T11:33:41;103660.25;;;17.01
31921;BMP280;66485;52.128;4.436;2023-02-11T11:36:09;103660.25;;;17.01
31921;BMP280;66485;52.128;4.436;2023-02-11T11:38:42;103666.78;;;17.00
31921;BMP280;66485;52.128;4.436;2023-02-11T11:41:25;103669.84;;;16.99
31921;BMP280;66485;52.128;4.436;2023-02-11T11:44:04;103669.84;;;16.99
31921;BMP280;66485;52.128;4.436;2023-02-11T11:46:42;103665.88;;;16.96
31921;BMP280;66485;52.128;4.436;2023-02-11T11:49:29;103663.16;;;16.96
31921;BMP280;66485;52.128;4.436;2023-02-11T11:52:14;103663.97;;;16.97
31921;BMP280;66485;52.128;4.436;2023-02-11T11:54:47;103661.56;;;16.95
31921;BMP280;66485;52.128;4.436;2023-02-11T11:57:17;103650.31;;;16.93
31921;BMP280;66485;52.128;4.436;2023-02-11T11:59:45;103644.09;;;16.93
31921;BMP280;66485;52.128;4.436;2023-02-11T12:02:34;103657.66;;;16.93
31921;BMP280;66485;52.128;4.436;2023-02-11T12:05:04;103654.16;;;16.92
31921;BMP280;66485;52.128;4.436;2023-02-11T12:07:41;103654.16;;;16.92
31921;BMP280;66485;52.128;4.436;2023-02-11T12:16:03;103669.00;;;16.86
31921;BMP280;66485;52.128;4.436;2023-02-11T12:25:15;103667.81;;;17.08
31921;BMP280;66485;52.128;4.436;2023-02-11T12:30:37;103657.91;;;17.12
31921;BMP280;66485;52.128;4.436;2023-02-11T12:35:55;103656.66;;;17.10
31921;BMP280;66485;52.128;4.436;2023-02-11T12:44:21;103673.69;;;17.10
31921;BMP280;66485;52.128;4.436;2023-02-11T12:47:04;103675.63;;;17.10
31921;BMP280;66485;52.128;4.436;2023-02-11T12:49:44;103675.63;;;17.10
31921;BMP280;66485;52.128;4.436;2023-02-11T12:52:23;103673.25;;;17.08
31921;BMP280;66485;52.128;4.436;2023-02-11T12:55:24;103665.25;;;17.12
31921;BMP280;66485;52.128;4.436;2023-02-11T12:57:52;103669.75;;;17.08
31921;BMP280;66485;52.128;4.436;2023-02-11T13:00:24;103668.44;;;17.14
31921;BMP280;66485;52.128;4.436;2023-02-11T13:05:39;103663.19;;;17.09
31921;BMP280;66485;52.128;4.436;2023-02-11T13:08:13;103664.31;;;17.08
31921;BMP280;66485;52.128;4.436;2023-02-11T13:10:41;103659.94;;;17.03
31921;BMP280;66485;52.128;4.436;2023-02-11T13:13:18;103659.94;;;17.03
31921;BMP280;66485;52.128;4.436;2023-02-11T13:15:59;103670.06;;;17.06
31921;BMP280;66485;52.128;4.436;2023-02-11T13:24:00;103655.94;;;17.00
31921;BMP280;66485;52.128;4.436;2023-02-11T13:26:28;103655.94;;;17.00
31921;BMP280;66485;52.128;4.436;2023-02-11T13:32:12;103659.34;;;16.97
31921;BMP280;66485;52.128;4.436;2023-02-11T13:37:45;103660.47;;;16.96
31921;BMP280;66485;52.128;4.436;2023-02-11T13:42:49;103654.16;;;16.92
31921;BMP280;66485;52.128;4.436;2023-02-11T13:45:44;103655.19;;;17.00
31921;BMP280;66485;52.128;4.436;2023-02-11T13:48:40;103660.41;;;17.05
31921;BMP280;66485;52.128;4.436;2023-02-11T13:51:05;103656.31;;;17.11
31921;BMP280;66485;52.128;4.436;2023-02-11T13:54:00;103649.47;;;17.14
31921;BMP280;66485;52.128;4.436;2023-02-11T13:56:35;103649.47;;;17.14
31921;BMP280;66485;52.128;4.436;2023-02-11T13:59:04;103647.19;;;17.16
31921;BMP280;66485;52.128;4.436;2023-02-11T14:04:35;103656.22;;;17.20
31921;BMP280;66485;52.128;4.436;2023-02-11T14:07:25;103646.94;;;17.21
31921;BMP280;66485;52.128;4.436;2023-02-11T14:13:28;103653.06;;;17.18
31921;BMP280;66485;52.128;4.436;2023-02-11T14:18:35;103656.47;;;17.15
31921;BMP280;66485;52.128;4.436;2023-02-11T14:21:13;103655.66;;;17.14
31921;BMP280;66485;52.128;4.436;2023-02-11T14:23:40;103653.75;;;17.15
31921;BMP280;66485;52.128;4.436;2023-02-11T14:26:22;103657.25;;;17.15
31921;BMP280;66485;52.128;4.436;2023-02-11T14:28:54;103644.25;;;17.21
31921;BMP280;66485;52.128;4.436;2023-02-11T14:31:29;103658.00;;;17.16
31921;BMP280;66485;52.128;4.436;2023-02-11T14:37:07;103648.66;;;17.13
31921;BMP280;66485;52.128;4.436;2023-02-11T14:42:19;103652.00;;;17.10
31921;BMP280;66485;52.128;4.436;2023-02-11T14:44:51;103648.88;;;17.08
31921;BMP280;66485;52.128;4.436;2023-02-11T14:47:20;103653.50;;;17.08
31921;BMP280;66485;52.128;4.436;2023-02-11T14:49:47;103656.53;;;17.06
31921;BMP280;66485;52.128;4.436;2023-02-11T14:52:27;103662.31;;;17.05
31921;BMP280;66485;52.128;4.436;2023-02-11T14:58:25;103667.59;;;17.01
31921;BMP280;66485;52.128;4.436;2023-02-11T15:06:11;103660.78;;;16.95
31921;BMP280;66485;52.128;4.436;2023-02-11T15:08:55;103660.78;;;16.95
31921;BMP280;66485;52.128;4.436;2023-02-11T15:11:24;103669.59;;;16.92
31921;BMP280;66485;52.128;4.436;2023-02-11T15:13:50;103677.59;;;16.88
31921;BMP280;66485;52.128;4.436;2023-02-11T15:16:21;103677.59;;;16.88
31921;BMP280;66485;52.128;4.436;2023-02-11T15:18:50;103683.47;;;16.90
31921;BMP280;66485;52.128;4.436;2023-02-11T15:21:24;103691.03;;;16.97
31921;BMP280;66485;52.128;4.436;2023-02-11T15:24:40;103692.75;;;17.01
31921;BMP280;66485;52.128;4.436;2023-02-11T15:26:40;103681.69;;;17.07
31921;BMP280;66485;52.128;4.436;2023-02-11T15:29:15;103683.41;;;17.11
31921;BMP280;66485;52.128;4.436;2023-02-11T15:31:40;103683.41;;;17.11
31921;BMP280;66485;52.128;4.436;2023-02-11T15:34:07;103680.69;;;17.11
31921;BMP280;66485;52.128;4.436;2023-02-11T15:36:33;103680.69;;;17.11
31921;BMP280;66485;52.128;4.436;2023-02-11T15:39:32;103678.66;;;17.08
31921;BMP280;66485;52.128;4.436;2023-02-11T15:44:47;103680.56;;;17.08
31921;BMP280;66485;52.128;4.436;2023-02-11T15:47:19;103683.28;;;17.08
31921;BMP280;66485;52.128;4.436;2023-02-11T15:49:46;103682.59;;;17.11
31921;BMP280;66485;52.128;4.436;2023-02-11T15:52:13;103684.50;;;17.10
31921;BMP280;66485;52.128;4.436;2023-02-11T15:54:39;103675.16;;;17.08
31921;BMP280;66485;52.128;4.436;2023-02-11T15:57:09;103675.84;;;17.05
31921;BMP280;66485;52.128;4.436;2023-02-11T15:59:39;103676.97;;;17.03
31921;BMP280;66485;52.128;4.436;2023-02-11T16:02:27;103676.97;;;17.03
31921;BMP280;66485;52.128;4.436;2023-02-11T16:04:56;103680.31;;;17.00